Time;durP1;ratioP1;P1;durP2;ratioP2;P2;SDS_P1;SDS_P2;PMS_P1;PMS_P2;Temp;Humidity;BMP_temperature;BMP_pressure;BME280_temperature;BME280_humidity;BME280_pressure;Samples;Min_cycle;Max_cycle;Signal;HPM_P1;HPM_P2
2022/01/21 00:01:37;;;;;;;9.63;1.33;;;-0.90;1.00;;;;;;6214211;23;20859;-51
2022/01/21 00:04:03;;;;;;;7.63;1.60;;;-0.90;1.00;;;;;;6213385;23;20369;-52
2022/01/21 00:06:29;;;;;;;4.37;1.50;;;-0.90;1.00;;;;;;6214183;23;20460;-52
2022/01/21 00:08:54;;;;;;;2.33;1.20;;;-0.90;1.00;;;;;;6214404;23;20153;-45
2022/01/21 00:11:23;;;;;;;5.63;1.80;;;-0.90;1.00;;;;;;6213215;23;20757;-45
2022/01/21 00:13:48;;;;;;;13.70;1.90;;;-0.90;1.00;;;;;;6213679;23;20174;-46
2022/01/21 00:16:17;;;;;;;3.77;1.40;;;-0.80;1.00;;;;;;6214516;23;20417;-45
2022/01/21 00:18:56;;;;;;;6.00;1.57;;;-0.80;1.00;;;;;;6214052;23;20375;-46
2022/01/21 00:32:19;;;;;;;6.20;1.40;;;-0.90;1.00;;;;;;6212844;23;20400;-45
2022/01/21 00:34:45;;;;;;;5.17;1.57;;;-0.90;1.00;;;;;;6212633;23;20366;-45
2022/01/21 00:37:11;;;;;;;6.40;1.70;;;-0.90;1.00;;;;;;6213767;23;20147;-45
2022/01/21 00:39:37;;;;;;;5.53;1.63;;;-0.90;1.00;;;;;;6213159;23;20162;-45
2022/01/21 00:44:33;;;;;;;7.03;1.57;;;-0.80;1.00;;;;;;6218565;23;20401;-45
2022/01/21 00:46:58;;;;;;;4.77;2.17;;;-0.80;1.00;;;;;;6212555;23;20433;-45
2022/01/21 00:49:24;;;;;;;7.03;2.13;;;-0.70;1.00;;;;;;6212244;23;20147;-45
2022/01/21 00:51:50;;;;;;;6.17;1.57;;;-0.70;1.00;;;;;;6186055;23;20173;-45
2022/01/21 00:54:16;;;;;;;8.00;1.70;;;-0.70;1.00;;;;;;6212461;23;20228;-45
2022/01/21 00:56:42;;;;;;;2.83;1.50;;;-0.70;1.00;;;;;;6212511;23;20177;-45
2022/01/21 00:59:07;;;;;;;6.90;1.73;;;-0.70;1.00;;;;;;6212992;23;20370;-45
2022/01/21 01:01:33;;;;;;;8.00;1.80;;;-0.70;1.00;;;;;;6212361;23;20845;-45
2022/01/21 01:03:59;;;;;;;8.03;1.70;;;-0.80;1.00;;;;;;6212589;23;20147;-45
2022/01/21 01:06:25;;;;;;;3.93;1.70;;;-0.80;1.00;;;;;;6212676;23;20563;-45
2022/01/21 01:08:52;;;;;;;9.80;2.10;;;-0.70;1.00;;;;;;6212628;23;20185;-46
2022/01/21 01:11:25;;;;;;;4.37;1.70;;;-0.70;1.00;;;;;;6212032;23;20797;-45
2022/01/21 01:22:05;;;;;;;2.93;1.60;;;-0.80;1.00;;;;;;6212416;23;20369;-45
2022/01/21 01:30:00;;;;;;;7.43;1.70;;;-0.80;1.00;;;;;;6212507;23;20674;-45
2022/01/21 01:32:28;;;;;;;7.47;1.70;;;-0.80;1.00;;;;;;6211899;23;20619;-45
2022/01/21 01:34:53;;;;;;;3.90;1.40;;;-0.80;1.00;;;;;;6212206;23;20365;-45
2022/01/21 01:40:23;;;;;;;6.37;1.60;;;-0.80;1.00;;;;;;6212547;23;20318;-45
2022/01/21 01:50:48;;;;;;;8.23;1.93;;;-0.80;1.00;;;;;;6212201;23;20405;-46
2022/01/21 01:53:14;;;;;;;9.43;1.60;;;-0.80;1.00;;;;;;6211872;23;20520;-45
2022/01/21 01:55:40;;;;;;;6.63;2.00;;;-0.80;1.00;;;;;;6212451;23;20377;-45
2022/01/21 01:58:06;;;;;;;9.93;2.30;;;-0.80;1.00;;;;;;6212179;23;20369;-45
2022/01/21 02:00:31;;;;;;;4.63;1.70;;;-0.70;1.00;;;;;;6211795;23;20439;-45
2022/01/21 02:03:07;;;;;;;7.67;1.70;;;-0.70;1.00;;;;;;6211828;23;20150;-46
2022/01/21 02:05:33;;;;;;;7.70;1.50;;;-0.70;1.00;;;;;;6185043;23;20158;-46
2022/01/21 02:07:58;;;;;;;6.80;1.90;;;-0.70;1.00;;;;;;6212062;23;20440;-45
2022/01/21 02:10:24;;;;;;;18.97;2.30;;;-0.80;1.00;;;;;;6212037;23;20519;-45
2022/01/21 02:12:50;;;;;;;13.17;2.40;;;-0.70;1.00;;;;;;6211857;23;20186;-45
2022/01/21 02:15:16;;;;;;;5.90;1.87;;;-0.70;1.00;;;;;;6211834;23;20214;-45
2022/01/21 02:22:51;;;;;;;10.03;1.80;;;-0.70;16.40;;;;;;6211997;23;20157;-46
2022/01/21 02:25:21;;;;;;;8.43;1.53;;;-0.60;6.50;;;;;;6211871;23;20386;-45
2022/01/21 02:27:52;;;;;;;3.90;1.87;;;-0.60;1.00;;;;;;6211693;23;20577;-47
2022/01/21 02:30:20;;;;;;;11.87;2.57;;;-0.60;1.90;;;;;;6212002;23;20366;-46
2022/01/21 02:32:51;;;;;;;12.97;2.00;;;-0.60;29.90;;;;;;6211923;23;20491;-47
2022/01/21 02:35:18;;;;;;;11.13;2.83;;;-0.60;88.50;;;;;;6211332;23;20395;-45
2022/01/21 02:37:44;;;;;;;24.33;2.87;;;-0.60;93.80;;;;;;6187188;23;20398;-46
2022/01/21 02:40:11;;;;;;;9.30;2.00;;;-0.60;86.60;;;;;;6214381;23;20377;-45
2022/01/21 02:42:37;;;;;;;14.83;3.10;;;-0.60;99.90;;;;;;6213771;23;20396;-45
2022/01/21 02:45:08;;;;;;;7.80;1.97;;;-0.60;99.90;;;;;;6213815;23;20437;-45
2022/01/21 02:47:34;;;;;;;13.50;3.10;;;-0.60;99.90;;;;;;6213548;23;20370;-45
2022/01/21 02:49:59;;;;;;;9.30;2.03;;;-0.60;99.90;;;;;;6213547;23;20839;-46
2022/01/21 02:52:28;;;;;;;11.30;2.13;;;-0.50;99.90;;;;;;6214134;23;20174;-45
2022/01/21 02:54:54;;;;;;;10.43;2.20;;;-0.60;99.90;;;;;;6213446;23;20143;-45
2022/01/21 02:57:19;;;;;;;16.47;2.20;;;-0.50;99.90;;;;;;6214044;23;20471;-46
2022/01/21 02:59:45;;;;;;;7.60;2.10;;;-0.50;99.90;;;;;;6187045;23;20185;-46
2022/01/21 03:02:13;;;;;;;13.63;1.90;;;-0.50;99.90;;;;;;6214031;23;20462;-52
2022/01/21 03:04:52;;;;;;;11.07;2.17;;;-0.50;99.90;;;;;;6213613;23;20380;-51
2022/01/21 03:07:17;;;;;;;15.33;2.40;;;-0.50;99.90;;;;;;6213408;23;20365;-52
2022/01/21 03:09:43;;;;;;;5.00;2.07;;;-0.40;99.90;;;;;;6213738;23;20420;-52
2022/01/21 03:12:09;;;;;;;18.10;2.43;;;-0.30;99.90;;;;;;6213293;23;20162;-52
2022/01/21 03:14:34;;;;;;;12.63;2.10;;;-0.30;99.90;;;;;;6213420;23;20596;-52
2022/01/21 03:17:00;;;;;;;10.67;2.30;;;-0.20;85.00;;;;;;6213856;23;20149;-52
2022/01/21 03:19:25;;;;;;;23.53;2.90;;;-0.10;67.80;;;;;;6213284;23;20162;-52
2022/01/21 03:21:51;;;;;;;11.87;3.13;;;0.00;39.10;;;;;;6213485;23;20238;-51
2022/01/21 03:24:17;;;;;;;13.40;2.30;;;0.00;29.40;;;;;;6213808;23;20548;-52
2022/01/21 03:26:42;;;;;;;16.33;1.90;;;0.00;25.20;;;;;;6212937;23;20169;-52
2022/01/21 03:29:08;;;;;;;18.27;2.37;;;0.10;37.30;;;;;;6213735;23;20150;-52
2022/01/21 03:31:34;;;;;;;13.53;3.13;;;0.20;18.00;;;;;;6213517;23;20460;-52
2022/01/21 03:34:01;;;;;;;4.70;1.63;;;0.20;1.00;;;;;;6213305;23;20473;-45
2022/01/21 03:36:27;;;;;;;21.97;2.27;;;0.30;1.00;;;;;;6213569;23;20384;-46
2022/01/21 03:38:53;;;;;;;16.60;2.97;;;0.30;1.00;;;;;;6213081;23;20663;-46
2022/01/21 03:41:19;;;;;;;8.63;1.80;;;0.30;1.00;;;;;;6213158;23;20386;-46
2022/01/21 03:43:44;;;;;;;10.43;2.33;;;0.40;1.00;;;;;;6213300;23;20161;-46
2022/01/21 03:46:10;;;;;;;15.70;2.80;;;0.40;1.00;;;;;;6213356;23;20852;-46
2022/01/21 03:48:36;;;;;;;11.43;2.20;;;0.40;2.70;;;;;;6212796;23;20538;-46
2022/01/21 03:51:02;;;;;;;11.13;1.57;;;0.50;11.20;;;;;;6213435;23;20170;-46
2022/01/21 03:53:28;;;;;;;6.93;1.83;;;0.50;16.60;;;;;;6212717;23;20824;-45
2022/01/21 03:55:53;;;;;;;23.03;2.43;;;0.60;21.60;;;;;;6213225;23;20405;-46
2022/01/21 03:58:19;;;;;;;21.00;2.30;;;0.60;12.80;;;;;;6213765;23;20455;-46
2022/01/21 04:00:48;;;;;;;16.13;2.23;;;0.70;13.50;;;;;;6213432;23;20424;-46
2022/01/21 04:03:14;;;;;;;14.93;2.10;;;0.80;1.00;;;;;;6213328;23;20471;-46
2022/01/21 04:05:41;;;;;;;7.57;1.53;;;0.90;1.00;;;;;;6213064;23;20374;-46
2022/01/21 04:08:08;;;;;;;9.00;2.20;;;0.90;1.00;;;;;;6186821;23;20390;-46
2022/01/21 04:10:35;;;;;;;13.90;2.10;;;0.90;1.00;;;;;;6213049;23;20384;-45
2022/01/21 04:13:02;;;;;;;13.53;2.30;;;1.00;1.00;;;;;;6213131;23;20422;-46
2022/01/21 04:15:28;;;;;;;16.30;2.50;;;1.00;1.00;;;;;;6186510;23;20398;-45
2022/01/21 04:17:53;;;;;;;10.03;2.10;;;1.00;35.00;;;;;;6212661;23;20377;-46
2022/01/21 04:20:19;;;;;;;8.50;1.90;;;1.10;14.20;;;;;;6213175;23;20150;-46
2022/01/21 04:22:45;;;;;;;11.30;3.13;;;1.10;7.90;;;;;;6213006;23;20245;-46
2022/01/21 04:25:11;;;;;;;9.17;1.97;;;1.10;39.60;;;;;;6212596;23;20467;-46
2022/01/21 04:27:37;;;;;;;10.13;1.97;;;1.10;54.40;;;;;;6213176;23;20166;-46
2022/01/21 04:30:05;;;;;;;9.77;1.83;;;1.10;99.90;;;;;;6212579;23;20169;-46
2022/01/21 04:32:30;;;;;;;16.93;2.17;;;1.10;99.90;;;;;;6212641;23;20429;-46
2022/01/21 04:34:56;;;;;;;21.97;3.20;;;1.10;99.90;;;;;;6212381;23;20393;-46
2022/01/21 04:37:21;;;;;;;14.53;2.67;;;1.20;99.90;;;;;;6212597;23;20151;-46
2022/01/21 04:39:56;;;;;;;5.83;2.13;;;1.20;99.90;;;;;;6212382;23;20644;-46
2022/01/21 04:47:39;;;;;;;13.63;2.40;;;1.20;99.90;;;;;;6212402;23;20150;-46
2022/01/21 04:50:10;;;;;;;23.00;2.50;;;1.10;99.90;;;;;;6212575;23;20429;-46
2022/01/21 04:52:36;;;;;;;24.87;2.30;;;1.10;99.90;;;;;;6212587;23;20421;-46
2022/01/21 04:55:02;;;;;;;15.47;2.30;;;1.00;99.90;;;;;;6212698;23;20417;-52
2022/01/21 04:57:29;;;;;;;8.47;2.33;;;1.00;99.90;;;;;;6212994;23;21012;-53
2022/01/21 04:59:54;;;;;;;10.43;2.60;;;1.00;99.90;;;;;;6212062;23;20436;-53
2022/01/21 05:02:20;;;;;;;18.80;2.47;;;1.00;99.90;;;;;;6212740;23;20727;-53
2022/01/21 05:04:45;;;;;;;16.37;2.40;;;1.10;99.90;;;;;;6212309;23;20221;-52
2022/01/21 05:07:13;;;;;;;19.83;2.10;;;1.00;99.90;;;;;;6212556;23;20151;-53
2022/01/21 05:09:39;;;;;;;11.50;2.70;;;1.00;99.90;;;;;;6212135;23;20158;-53
2022/01/21 05:12:09;;;;;;;17.27;2.03;;;1.00;1.00;;;;;;6212471;23;20427;-53
2022/01/21 05:15:08;;;;;;;11.90;2.60;;;1.00;1.00;;;;;;6211868;23;20186;-53
2022/01/21 05:17:42;;;;;;;18.60;2.90;;;1.00;1.00;;;;;;6212069;23;20369;-54
2022/01/21 05:20:08;;;;;;;21.17;2.80;;;1.00;1.00;;;;;;6212435;23;20372;-53
2022/01/21 05:22:33;;;;;;;27.93;2.63;;;0.90;1.00;;;;;;6185889;23;20401;-53
2022/01/21 05:24:59;;;;;;;15.90;2.30;;;0.90;1.00;;;;;;6212369;23;20377;-52
2022/01/21 05:27:25;;;;;;;13.27;3.80;;;0.90;1.00;;;;;;6212487;23;20151;-53
2022/01/21 05:29:51;;;;;;;12.50;2.23;;;0.80;1.00;;;;;;6212142;23;20161;-53
2022/01/21 05:32:16;;;;;;;9.30;2.30;;;0.80;1.00;;;;;;6212169;23;20454;-52
2022/01/21 05:34:42;;;;;;;11.87;2.43;;;0.80;1.00;;;;;;6211911;23;20526;-53
2022/01/21 05:37:08;;;;;;;13.17;3.33;;;0.80;1.00;;;;;;6212134;23;20157;-53
2022/01/21 05:39:33;;;;;;;24.53;2.90;;;0.80;1.00;;;;;;6212512;23;20143;-53
2022/01/21 05:42:00;;;;;;;15.33;2.40;;;0.90;1.00;;;;;;6212145;23;20377;-53
2022/01/21 05:46:55;;;;;;;20.57;3.70;;;1.00;99.90;;;;;;6212583;23;20966;-52
2022/01/21 05:49:27;;;;;;;16.67;3.77;;;1.00;99.90;;;;;;6212125;23;20835;-52
2022/01/21 05:52:01;;;;;;;7.57;1.90;;;0.90;99.90;;;;;;6212224;23;20388;-52
2022/01/21 05:54:27;;;;;;;10.70;1.80;;;1.00;99.90;;;;;;6185953;23;20428;-53
2022/01/21 05:56:53;;;;;;;10.13;1.87;;;1.00;99.90;;;;;;6216599;23;20369;-53
2022/01/21 05:59:19;;;;;;;4.73;1.70;;;1.00;99.90;;;;;;6216704;23;20162;-52
2022/01/21 06:01:48;;;;;;;8.23;1.60;;;1.00;95.90;;;;;;6213578;23;20792;-52
2022/01/21 06:04:14;;;;;;;9.40;2.17;;;1.10;1.00;;;;;;6215142;23;20166;-53
2022/01/21 06:06:40;;;;;;;9.67;1.67;;;1.00;1.00;;;;;;6212713;23;20440;-53
2022/01/21 06:09:07;;;;;;;16.83;2.27;;;1.00;1.00;;;;;;6212095;23;20178;-52
2022/01/21 06:11:33;;;;;;;11.03;2.17;;;1.00;1.00;;;;;;6212543;23;20166;-53
2022/01/21 06:14:00;;;;;;;18.57;2.67;;;1.00;1.00;;;;;;6214128;23;20918;-53
2022/01/21 06:16:26;;;;;;;16.43;1.90;;;1.00;1.00;;;;;;6214246;23;20404;-52
2022/01/21 06:18:52;;;;;;;14.43;2.20;;;0.90;1.00;;;;;;6214059;23;20703;-52
2022/01/21 06:21:18;;;;;;;12.47;2.77;;;0.80;1.00;;;;;;6214159;23;20143;-53
2022/01/21 06:23:43;;;;;;;15.23;2.03;;;0.80;1.00;;;;;;6213691;23;20419;-53
2022/01/21 06:26:09;;;;;;;6.00;1.93;;;0.70;1.00;;;;;;6213908;23;20154;-53
2022/01/21 06:28:34;;;;;;;10.37;2.00;;;0.70;1.00;;;;;;6214235;23;20146;-53
2022/01/21 06:31:01;;;;;;;9.10;1.70;;;0.70;1.00;;;;;;6213991;23;20177;-52
2022/01/21 06:33:27;;;;;;;7.03;1.70;;;0.70;1.00;;;;;;6214146;23;20186;-53
2022/01/21 06:35:53;;;;;;;8.83;1.77;;;0.70;1.00;;;;;;6213615;23;20393;-53
2022/01/21 06:38:20;;;;;;;7.43;1.63;;;0.70;1.00;;;;;;6213968;23;20577;-52
2022/01/21 06:40:46;;;;;;;6.80;2.30;;;0.60;1.00;;;;;;6214200;23;20388;-52
2022/01/21 06:43:13;;;;;;;12.50;1.90;;;0.60;1.00;;;;;;6187456;23;20400;-53
2022/01/21 06:45:39;;;;;;;8.90;2.10;;;0.50;1.00;;;;;;6213893;23;20468;-53
2022/01/21 06:48:05;;;;;;;9.50;1.93;;;0.50;1.00;;;;;;6213754;23;20468;-53
2022/01/21 06:50:36;;;;;;;8.43;1.70;;;0.50;1.00;;;;;;6213997;23;20401;-52
2022/01/21 06:53:01;;;;;;;11.67;2.07;;;0.40;1.00;;;;;;6213806;23;20189;-52
2022/01/21 06:55:27;;;;;;;9.87;1.73;;;0.40;1.00;;;;;;6213787;23;20753;-53
2022/01/21 06:57:53;;;;;;;8.47;1.70;;;0.40;1.00;;;;;;6214432;23;20189;-53
2022/01/21 07:00:19;;;;;;;8.03;1.90;;;0.40;1.00;;;;;;6214197;23;20161;-53
2022/01/21 07:02:46;;;;;;;13.50;1.97;;;0.40;1.00;;;;;;6213560;23;20815;-52
2022/01/21 07:05:12;;;;;;;9.10;1.97;;;0.40;1.00;;;;;;6213683;23;20591;-53
2022/01/21 07:07:38;;;;;;;7.13;1.90;;;0.30;1.00;;;;;;6213378;23;20361;-52
2022/01/21 07:10:06;;;;;;;6.37;2.00;;;0.30;1.00;;;;;;6213469;23;20163;-52
2022/01/21 07:12:32;;;;;;;4.93;1.60;;;0.20;1.00;;;;;;6213487;23;20156;-52
2022/01/21 07:14:58;;;;;;;4.47;1.70;;;0.30;1.00;;;;;;6213311;23;20373;-52
2022/01/21 07:17:24;;;;;;;10.03;2.10;;;0.30;1.00;;;;;;6213811;23;20836;-52
2022/01/21 07:19:49;;;;;;;4.40;1.83;;;0.20;1.00;;;;;;6213318;23;20150;-52
2022/01/21 07:22:15;;;;;;;7.80;1.93;;;0.20;1.00;;;;;;6213308;23;20226;-53
2022/01/21 07:24:40;;;;;;;10.23;1.97;;;0.10;1.00;;;;;;6213217;23;20631;-52
2022/01/21 07:27:06;;;;;;;10.03;2.33;;;0.10;1.00;;;;;;6213222;23;20161;-52
2022/01/21 07:29:32;;;;;;;9.13;2.13;;;0.00;1.00;;;;;;6213457;23;20574;-52
2022/01/21 07:31:58;;;;;;;11.73;2.10;;;0.00;1.00;;;;;;6213504;23;20162;-53
2022/01/21 07:34:25;;;;;;;15.87;1.90;;;0.00;1.00;;;;;;6213114;23;20482;-52
2022/01/21 07:36:52;;;;;;;9.87;1.77;;;0.00;1.00;;;;;;6213329;23;20221;-52
2022/01/21 07:39:17;;;;;;;6.90;2.13;;;0.00;1.00;;;;;;6213119;23;20372;-53
2022/01/21 07:41:43;;;;;;;9.03;2.30;;;0.00;1.00;;;;;;6213126;23;20472;-46
2022/01/21 07:44:09;;;;;;;11.63;2.10;;;0.00;1.00;;;;;;6186853;23;20163;-45
2022/01/21 07:46:34;;;;;;;10.90;1.80;;;0.00;1.00;;;;;;6213151;23;20208;-46
2022/01/21 07:49:01;;;;;;;12.23;2.07;;;0.00;1.00;;;;;;6212767;23;20147;-46
2022/01/21 07:51:31;;;;;;;5.83;1.67;;;0.00;1.00;;;;;;6186741;23;20585;-46
2022/01/21 07:53:56;;;;;;;12.93;2.27;;;0.00;1.00;;;;;;6212455;23;20421;-55
2022/01/21 07:56:23;;;;;;;7.37;1.30;;;0.00;1.00;;;;;;6213009;23;20381;-45
2022/01/21 07:58:49;;;;;;;14.40;1.87;;;0.00;1.00;;;;;;6212836;23;20150;-46
2022/01/21 08:01:14;;;;;;;6.77;2.00;;;0.00;1.00;;;;;;6210693;23;20365;-46
2022/01/21 08:03:40;;;;;;;8.23;1.80;;;0.10;1.00;;;;;;6212032;23;20158;-46
2022/01/21 08:06:06;;;;;;;6.80;2.10;;;0.10;1.00;;;;;;6212488;23;20154;-52
2022/01/21 08:08:31;;;;;;;7.40;2.27;;;0.20;1.00;;;;;;6212188;23;20374;-51
2022/01/21 08:10:57;;;;;;;7.47;2.40;;;0.20;1.00;;;;;;6212375;23;20233;-51
2022/01/21 08:13:22;;;;;;;9.35;2.38;;;0.30;1.00;;;;;;6212269;23;20522;-52
2022/01/21 08:15:48;;;;;;;6.77;2.10;;;0.40;1.00;;;;;;6213877;23;20154;-52
2022/01/21 08:18:15;;;;;;;8.70;2.10;;;0.40;1.00;;;;;;6212784;23;20142;-51
2022/01/21 08:20:44;;;;;;;5.07;1.70;;;0.40;1.00;;;;;;6212971;23;20149;-51
2022/01/21 08:23:13;;;;;;;8.87;1.90;;;0.40;1.00;;;;;;6213492;23;20457;-52
2022/01/21 08:25:41;;;;;;;5.70;1.80;;;0.40;1.00;;;;;;6213033;23;20362;-51
2022/01/21 08:28:07;;;;;;;9.57;2.13;;;0.40;1.00;;;;;;6216598;23;20445;-51
2022/01/21 08:30:33;;;;;;;8.80;1.43;;;0.40;1.00;;;;;;6214200;23;20468;-52
2022/01/21 08:32:59;;;;;;;14.00;3.00;;;0.40;1.00;;;;;;6214289;23;20422;-53
2022/01/21 08:35:25;;;;;;;6.57;1.80;;;0.40;1.00;;;;;;6187471;23;20854;-54
2022/01/21 08:37:53;;;;;;;9.23;1.60;;;0.40;1.00;;;;;;6213991;23;20139;-53
2022/01/21 08:40:21;;;;;;;7.90;1.90;;;0.30;1.00;;;;;;6213488;23;20139;-52
2022/01/21 08:42:47;;;;;;;12.93;1.93;;;0.40;1.00;;;;;;6214052;23;20389;-56
2022/01/21 08:45:13;;;;;;;6.60;1.80;;;0.40;1.00;;;;;;6213304;23;20491;-52
2022/01/21 08:47:41;;;;;;;8.73;2.10;;;0.40;1.00;;;;;;6212744;23;20377;-58
2022/01/21 08:50:10;;;;;;;8.33;2.00;;;0.50;1.00;;;;;;6185889;23;20803;-52
2022/01/21 08:52:37;;;;;;;15.17;1.93;;;0.50;1.00;;;;;;6212864;23;20369;-52
2022/01/21 08:55:05;;;;;;;2.77;1.60;;;0.60;1.00;;;;;;6212566;23;20373;-52
2022/01/21 08:57:32;;;;;;;5.13;1.73;;;0.60;1.00;;;;;;6212658;23;20377;-53
2022/01/21 08:59:58;;;;;;;6.93;1.83;;;0.70;1.00;;;;;;6212181;23;20734;-53
2022/01/21 09:02:24;;;;;;;8.53;2.43;;;0.70;1.00;;;;;;6212776;23;20424;-52
2022/01/21 09:04:49;;;;;;;5.90;1.97;;;0.80;1.00;;;;;;6212470;23;20380;-54
2022/01/21 09:07:15;;;;;;;4.03;1.57;;;0.80;1.00;;;;;;6212491;23;20143;-51
2022/01/21 09:09:40;;;;;;;4.73;1.80;;;0.90;1.00;;;;;;6212600;23;20161;-52
2022/01/21 09:12:06;;;;;;;7.23;2.00;;;0.90;1.00;;;;;;6212482;23;20147;-52
2022/01/21 09:14:33;;;;;;;7.03;2.03;;;0.90;1.00;;;;;;6212439;23;20182;-52
2022/01/21 09:16:59;;;;;;;10.60;2.60;;;1.00;1.00;;;;;;6212640;23;20229;-47
2022/01/21 09:19:25;;;;;;;6.40;2.67;;;1.10;1.00;;;;;;6212714;23;20742;-47
2022/01/21 09:21:52;;;;;;;12.77;5.53;;;1.10;1.00;;;;;;6212700;23;20374;-48
2022/01/21 09:24:18;;;;;;;14.17;4.40;;;1.20;1.00;;;;;;6185593;23;20398;-44
2022/01/21 09:26:45;;;;;;;10.80;3.13;;;1.30;1.00;;;;;;6212654;23;20370;-45
2022/01/21 09:29:11;;;;;;;9.67;3.40;;;1.40;1.00;;;;;;6212254;23;20382;-47
2022/01/21 09:31:37;;;;;;;14.20;4.37;;;1.40;1.00;;;;;;6212503;23;20405;-47
2022/01/21 09:34:05;;;;;;;11.60;3.40;;;1.50;1.00;;;;;;6212127;23;20425;-47
2022/01/21 09:36:30;;;;;;;13.93;2.67;;;1.50;1.00;;;;;;6212239;23;20389;-47
2022/01/21 09:38:56;;;;;;;7.23;2.40;;;1.60;1.00;;;;;;6212157;23;20390;-45
2022/01/21 09:41:22;;;;;;;10.77;2.73;;;1.60;1.00;;;;;;6212456;23;20151;-45
2022/01/21 09:43:52;;;;;;;7.00;2.00;;;1.70;1.00;;;;;;6212265;23;20147;-44
2022/01/21 09:46:22;;;;;;;4.57;2.10;;;1.70;1.00;;;;;;6211969;23;20512;-52
2022/01/21 09:48:54;;;;;;;8.37;2.53;;;1.90;1.00;;;;;;6212550;23;20812;-50
2022/01/21 09:51:20;;;;;;;5.37;1.90;;;1.90;1.00;;;;;;6211921;23;20370;-50
2022/01/21 09:53:46;;;;;;;2.60;1.80;;;2.00;1.00;;;;;;6212336;23;20464;-50
2022/01/21 09:56:14;;;;;;;6.70;2.03;;;2.00;1.00;;;;;;6212285;23;20393;-54
2022/01/21 09:58:45;;;;;;;4.30;2.03;;;2.10;1.00;;;;;;6212335;23;20497;-53
2022/01/21 10:01:11;;;;;;;5.43;1.80;;;2.10;1.00;;;;;;6212351;23;20369;-54
2022/01/21 10:03:42;;;;;;;8.53;1.90;;;2.20;1.00;;;;;;6211985;23;20950;-53
2022/01/21 10:06:08;;;;;;;11.10;2.23;;;2.30;1.00;;;;;;6211877;23;20157;-53
2022/01/21 10:08:38;;;;;;;9.53;2.40;;;2.40;1.00;;;;;;6212431;23;20382;-52
2022/01/21 10:11:03;;;;;;;6.00;1.63;;;2.70;1.00;;;;;;6212635;23;20373;-50
2022/01/21 10:13:31;;;;;;;5.20;2.20;;;3.20;1.00;;;;;;6211702;23;20425;-51
2022/01/21 10:15:57;;;;;;;10.30;1.90;;;3.80;1.00;;;;;;6212381;23;20149;-51
2022/01/21 10:18:23;;;;;;;9.57;2.93;;;4.50;99.90;;;;;;6211806;23;20409;-51
2022/01/21 10:21:12;;;;;;;8.83;2.80;;;4.80;99.90;;;;;;6212006;23;20151;-53
2022/01/21 10:23:40;;;;;;;10.20;2.50;;;4.80;99.90;;;;;;6212361;23;20424;-52
2022/01/21 10:26:09;;;;;;;9.60;1.97;;;4.60;99.90;;;;;;6212264;23;20713;-51
2022/01/21 10:28:36;;;;;;;4.20;1.37;;;4.30;99.90;;;;;;6212288;23;20369;-56
2022/01/21 10:31:27;;;;;;;8.20;1.67;;;4.00;99.90;;;;;;6212524;23;20370;-51
2022/01/21 10:33:56;;;;;;;7.47;1.90;;;3.90;99.90;;;;;;6212179;23;20441;-51
2022/01/21 10:36:26;;;;;;;7.90;1.57;;;4.00;99.90;;;;;;6212108;23;20459;-51
2022/01/21 10:39:02;;;;;;;5.57;1.47;;;4.10;99.90;;;;;;6212215;23;20366;-49
2022/01/21 10:41:33;;;;;;;5.27;1.87;;;4.10;99.90;;;;;;6211677;23;20354;-51
2022/01/21 10:44:19;;;;;;;3.63;1.77;;;4.20;99.90;;;;;;6212203;23;20408;-51
2022/01/21 10:47:07;;;;;;;8.00;1.47;;;4.40;99.90;;;;;;6212166;23;20433;-51
2022/01/21 10:49:35;;;;;;;14.10;1.43;;;4.60;99.90;;;;;;6212133;23;20378;-50
2022/01/21 10:52:02;;;;;;;6.53;1.73;;;4.90;99.90;;;;;;6213293;23;20462;-51
2022/01/21 10:54:29;;;;;;;14.83;2.77;;;5.90;99.90;;;;;;6212224;23;20543;-51
2022/01/21 10:57:08;;;;;;;4.00;1.67;;;7.30;99.90;;;;;;6212440;23;20967;-51
2022/01/21 10:59:52;;;;;;;8.57;1.43;;;9.00;99.90;;;;;;6213679;23;20396;-50
2022/01/21 11:02:40;;;;;;;6.10;1.47;;;10.40;99.90;;;;;;6214161;23;20436;-50
2022/01/21 11:05:38;;;;;;;9.83;1.93;;;11.40;99.90;;;;;;6213636;23;20358;-51
2022/01/21 11:08:07;;;;;;;7.20;1.90;;;11.70;99.90;;;;;;6214004;23;20354;-51
2022/01/21 11:10:36;;;;;;;9.37;1.90;;;12.10;99.90;;;;;;6213768;23;20369;-51
2022/01/21 11:13:23;;;;;;;7.90;1.77;;;12.90;99.90;;;;;;6214084;23;20424;-51
2022/01/21 11:16:04;;;;;;;8.87;1.63;;;13.80;99.90;;;;;;6213943;23;20373;-51
2022/01/21 11:18:31;;;;;;;6.13;1.67;;;13.70;99.90;;;;;;6213530;23;20385;-51
2022/01/21 11:21:04;;;;;;;6.23;1.47;;;13.50;99.90;;;;;;6213676;23;20365;-50
2022/01/21 11:23:33;;;;;;;7.50;1.80;;;12.60;99.90;;;;;;6213758;23;20389;-49
2022/01/21 11:26:03;;;;;;;12.47;2.10;;;11.40;99.90;;;;;;6213359;23;20439;-50
2022/01/21 11:28:39;;;;;;;9.20;2.00;;;10.10;99.90;;;;;;6213735;23;20432;-50
2022/01/21 11:31:06;;;;;;;8.17;1.90;;;9.30;99.90;;;;;;6213645;23;20373;-50
2022/01/21 11:33:31;;;;;;;10.00;1.90;;;8.60;99.90;;;;;;6213336;23;21338;-50
2022/01/21 11:35:57;;;;;;;9.40;1.57;;;8.30;99.90;;;;;;6213598;23;20366;-51
2022/01/21 11:38:25;;;;;;;12.70;2.37;;;7.70;99.90;;;;;;6213604;23;20755;-51
2022/01/21 11:40:52;;;;;;;10.43;2.30;;;7.30;99.90;;;;;;6213273;23;20139;-51
2022/01/21 11:43:19;;;;;;;5.93;1.80;;;6.80;99.90;;;;;;6213896;23;20409;-50
2022/01/21 11:51:19;;;;;;;10.70;2.50;;;5.80;99.90;;;;;;6224000;23;20820;-51
2022/01/21 11:53:49;;;;;;;11.10;2.60;;;5.60;99.90;;;;;;6213136;23;20420;-50
2022/01/21 11:56:52;;;;;;;13.27;2.63;;;5.50;99.90;;;;;;6213292;23;20388;-51
2022/01/21 11:59:31;;;;;;;11.70;2.70;;;5.40;99.90;;;;;;6213423;23;20452;-50
2022/01/21 12:01:57;;;;;;;12.17;1.83;;;5.30;1.00;;;;;;6213287;23;20349;-50
2022/01/21 12:04:46;;;;;;;8.57;1.87;;;5.20;1.00;;;;;;6213175;23;20382;-50
2022/01/21 12:07:36;;;;;;;9.30;2.80;;;5.30;1.00;;;;;;6213268;23;20844;-51
2022/01/21 12:10:09;;;;;;;19.83;3.60;;;5.30;1.00;;;;;;6212933;23;20839;-51
2022/01/21 12:18:53;;;;;;;9.40;2.50;;;5.50;1.00;;;;;;6213288;23;20453;-51
2022/01/21 12:21:30;;;;;;;11.90;1.80;;;5.60;1.00;;;;;;6213341;23;20365;-51
2022/01/21 12:23:57;;;;;;;8.17;2.03;;;5.60;1.00;;;;;;6213162;23;20372;-51
2022/01/21 12:26:24;;;;;;;4.50;1.83;;;5.60;1.00;;;;;;6213092;23;20377;-51
2022/01/21 12:28:52;;;;;;;15.97;1.97;;;5.60;1.00;;;;;;6213342;23;20373;-51
2022/01/21 12:31:20;;;;;;;7.60;1.87;;;5.50;1.00;;;;;;6213075;23;20374;-50
2022/01/21 12:36:26;;;;;;;15.60;2.30;;;5.40;1.00;;;;;;6213260;23;20370;-50
2022/01/21 12:41:18;;;;;;;9.33;2.07;;;5.20;1.00;;;;;;6223338;23;20370;-53
2022/01/21 12:43:56;;;;;;;11.17;2.07;;;5.20;1.00;;;;;;6213000;23;20393;-52
2022/01/21 12:46:31;;;;;;;9.50;2.00;;;5.20;1.00;;;;;;6212670;23;20201;-53
2022/01/21 12:48:58;;;;;;;9.27;2.10;;;5.20;1.00;;;;;;6212741;23;20380;-53
2022/01/21 12:56:51;;;;;;;12.90;1.80;;;5.40;1.00;;;;;;6212809;23;20364;-55
2022/01/21 12:59:19;;;;;;;17.43;2.10;;;5.50;1.00;;;;;;6212607;23;20520;-53
2022/01/21 13:01:46;;;;;;;9.40;1.67;;;5.50;1.00;;;;;;6212887;23;20401;-53
2022/01/21 13:04:27;;;;;;;15.47;2.23;;;5.60;1.00;;;;;;6212481;23;20820;-52
2022/01/21 13:07:06;;;;;;;12.67;2.73;;;5.60;1.00;;;;;;6211926;23;20766;-53
2022/01/21 13:10:00;;;;;;;9.43;2.03;;;5.70;1.00;;;;;;6212419;23;20960;-53
2022/01/21 13:12:46;;;;;;;4.50;2.53;;;6.50;1.00;;;;;;6212130;23;20366;-53
2022/01/21 13:15:13;;;;;;;7.10;1.90;;;7.10;1.00;;;;;;6213585;23;20878;-52
2022/01/21 13:17:39;;;;;;;11.73;1.90;;;7.40;1.00;;;;;;6212938;23;20835;-52
2022/01/21 13:20:05;;;;;;;11.30;2.17;;;7.60;1.00;;;;;;6212541;23;20366;-51
2022/01/21 13:22:35;;;;;;;5.87;1.73;;;7.60;1.00;;;;;;6212880;23;20182;-52
2022/01/21 13:25:13;;;;;;;11.93;2.10;;;7.50;1.00;;;;;;6212680;23;20378;-52
2022/01/21 13:27:51;;;;;;;10.70;1.90;;;7.30;1.00;;;;;;6211904;23;20804;-52
2022/01/21 13:30:20;;;;;;;4.10;1.67;;;7.00;1.00;;;;;;6212089;23;20366;-53
2022/01/21 13:32:46;;;;;;;11.80;2.20;;;6.70;1.00;;;;;;6212426;23;20884;-52
2022/01/21 13:35:18;;;;;;;17.70;2.20;;;6.40;1.00;;;;;;6211939;23;20409;-53
2022/01/21 13:38:02;;;;;;;22.30;2.43;;;6.20;1.00;;;;;;6212652;23;20378;-51
2022/01/21 13:40:34;;;;;;;12.70;2.20;;;6.20;1.00;;;;;;6212146;23;20369;-52
2022/01/21 13:43:15;;;;;;;13.30;2.30;;;6.20;1.00;;;;;;6212141;23;20504;-52
2022/01/21 13:45:42;;;;;;;14.30;2.10;;;6.20;1.00;;;;;;6212544;23;20851;-49
2022/01/21 13:48:10;;;;;;;11.20;1.60;;;6.20;1.00;;;;;;6212927;23;20382;-52
2022/01/21 13:50:36;;;;;;;10.50;1.77;;;6.10;1.00;;;;;;6212468;23;20370;-51
2022/01/21 13:53:03;;;;;;;12.73;2.23;;;6.00;1.00;;;;;;6212670;23;20421;-49
2022/01/21 13:55:30;;;;;;;9.10;2.00;;;5.90;1.00;;;;;;6211735;23;20391;-52
2022/01/21 13:57:58;;;;;;;9.60;2.07;;;5.80;1.00;;;;;;6211952;23;20362;-51
2022/01/21 14:00:35;;;;;;;14.43;2.27;;;5.80;1.00;;;;;;6212529;23;20385;-52
2022/01/21 14:03:08;;;;;;;16.27;2.43;;;5.60;4.30;;;;;;6212252;23;20369;-52
2022/01/21 14:05:50;;;;;;;14.67;1.73;;;5.60;66.90;;;;;;6212742;23;21054;-51
2022/01/21 14:08:25;;;;;;;9.93;2.37;;;5.50;99.90;;;;;;6212308;23;20370;-52
2022/01/21 14:11:01;;;;;;;12.40;2.00;;;5.50;99.90;;;;;;6212360;23;20800;-52
2022/01/21 14:13:29;;;;;;;12.47;2.63;;;5.40;99.90;;;;;;6212077;23;20424;-52
2022/01/21 14:15:57;;;;;;;12.20;2.63;;;5.30;99.90;;;;;;6211315;23;20374;-53
2022/01/21 14:18:23;;;;;;;14.70;2.40;;;5.30;99.90;;;;;;6212635;23;20558;-52